Time;durP1;ratioP1;P1;durP2;ratioP2;P2;SDS_P1;SDS_P2;PMS_P1;PMS_P2;Temp;Humidity;BMP_temperature;BMP_pressure;BME280_temperature;BME280_humidity;BME280_pressure;Samples;Min_cycle;Max_cycle;Signal;HPM_P1;HPM_P2
2021/01/07 00:02:00;;;;;;;19.88;10.15;;;;;;;3.56;68.90;100944.72;5012903;28;20044;-88
2021/01/07 00:04:25;;;;;;;20.45;12.50;;;;;;;3.52;69.05;100944.88;5013374;28;20525;-88
2021/01/07 00:06:51;;;;;;;19.70;11.23;;;;;;;3.41;69.19;100942.59;5013216;28;20030;-89
2021/01/07 00:09:16;;;;;;;19.77;11.93;;;;;;;3.33;68.16;100921.19;5012983;28;20032;-88
2021/01/07 00:11:42;;;;;;;24.30;11.18;;;;;;;3.47;68.32;100950.19;5013281;28;20029;-88
2021/01/07 00:14:08;;;;;;;17.10;10.30;;;;;;;3.36;68.93;100940.13;5013330;28;20030;-88
2021/01/07 00:16:35;;;;;;;19.52;10.45;;;;;;;3.37;68.54;100946.16;5013359;28;20072;-88
2021/01/07 00:19:00;;;;;;;19.80;9.70;;;;;;;3.29;69.02;100935.16;5013602;28;20029;-88
2021/01/07 00:21:26;;;;;;;19.20;10.98;;;;;;;3.30;68.99;100937.72;5012186;28;20550;-88
2021/01/07 00:23:51;;;;;;;18.25;11.40;;;;;;;3.29;69.29;100937.75;5011749;28;20117;-89
2021/01/07 00:26:16;;;;;;;25.90;11.82;;;;;;;3.29;69.70;100937.75;5028189;28;20045;-88
2021/01/07 00:28:42;;;;;;;23.67;10.88;;;;;;;3.32;69.10;100927.31;5013151;28;20033;-88
2021/01/07 00:31:07;;;;;;;21.20;11.57;;;;;;;3.20;69.11;100920.72;5012943;28;20057;-88
2021/01/07 00:33:32;;;;;;;20.77;11.23;;;;;;;3.35;68.83;100940.16;5012824;28;20022;-89
2021/01/07 00:35:58;;;;;;;21.15;11.32;;;;;;;3.21;68.72;100916.38;5012301;28;20488;-88
2021/01/07 00:38:23;;;;;;;21.25;12.23;;;;;;;3.22;69.11;100928.44;5012655;28;20164;-88
2021/01/07 00:40:48;;;;;;;19.65;11.82;;;;;;;3.05;69.15;100911.63;5012711;28;20018;-88
2021/01/07 00:43:14;;;;;;;19.20;10.85;;;;;;;3.20;68.45;100919.84;5013882;28;20025;-88
2021/01/07 00:45:39;;;;;;;21.58;11.10;;;;;;;3.10;68.35;100921.84;5016189;28;20052;-88
2021/01/07 00:48:05;;;;;;;19.05;10.75;;;;;;;3.15;68.07;100925.19;5011607;28;20068;-88
2021/01/07 00:50:30;;;;;;;19.70;10.75;;;;;;;3.04;68.92;100917.72;5011084;28;20033;-88
2021/01/07 00:52:56;;;;;;;20.80;12.23;;;;;;;3.09;68.84;100915.81;5011283;28;20029;-88
2021/01/07 00:55:21;;;;;;;23.25;12.25;;;;;;;3.02;69.35;100913.44;5011222;28;20411;-88
2021/01/07 00:57:46;;;;;;;23.13;13.25;;;;;;;2.97;68.13;100909.25;5011278;28;20108;-88
2021/01/07 01:00:18;;;;;;;20.75;13.18;;;;;;;2.92;68.33;100923.22;5010891;28;20030;-89
2021/01/07 01:02:44;;;;;;;29.13;17.15;;;;;;;2.77;69.20;100917.59;5011283;28;20495;-89
2021/01/07 01:05:10;;;;;;;28.55;17.15;;;;;;;2.69;68.94;100896.19;5012788;28;20037;-89
2021/01/07 01:07:35;;;;;;;30.77;16.27;;;;;;;2.73;69.62;100915.97;5015137;28;20037;-87
2021/01/07 01:10:04;;;;;;;35.92;18.17;;;;;;;2.61;69.09;100918.03;5013210;28;20026;-88
2021/01/07 01:12:29;;;;;;;28.38;16.75;;;;;;;2.41;69.60;100905.59;5013244;28;20022;-88
2021/01/07 01:14:54;;;;;;;35.40;17.88;;;;;;;2.46;69.95;100908.94;5013014;28;20030;-89
2021/01/07 01:17:20;;;;;;;32.50;17.40;;;;;;;2.47;69.66;100918.38;5012701;28;20026;-88
2021/01/07 01:19:45;;;;;;;46.90;17.95;;;;;;;2.31;69.81;100911.03;5012010;28;20018;-89
2021/01/07 01:22:11;;;;;;;91.55;20.48;;;;;;;2.05;69.01;100905.66;5010855;28;20049;-89
2021/01/07 01:24:36;;;;;;;32.85;19.17;;;;;;;2.17;70.33;100913.97;5027269;28;20026;-89
2021/01/07 01:27:03;;;;;;;27.52;17.02;;;;;;;2.04;71.09;100883.25;5012107;28;20057;-89
2021/01/07 01:29:29;;;;;;;42.80;19.38;;;;;;;1.98;70.07;100890.25;5011831;28;20392;-89
2021/01/07 01:31:55;;;;;;;48.53;19.20;;;;;;;2.06;69.37;100904.78;5011890;28;20033;-88
2021/01/07 01:34:24;;;;;;;82.55;19.73;;;;;;;1.77;70.34;100906.31;5012238;28;20110;-88
2021/01/07 01:36:50;;;;;;;32.53;17.70;;;;;;;1.88;71.15;100899.16;5011979;28;20539;-89
2021/01/07 01:39:17;;;;;;;28.50;16.25;;;;;;;1.91;69.25;100904.22;5011897;28;20064;-88
2021/01/07 01:41:47;;;;;;;55.10;17.65;;;;;;;1.65;69.05;100894.50;5011927;28;20034;-88
2021/01/07 01:44:13;;;;;;;23.95;15.60;;;;;;;1.55;68.74;100873.16;5011866;28;20034;-88
2021/01/07 01:46:39;;;;;;;24.17;16.10;;;;;;;1.75;69.80;100898.56;5011986;28;20025;-89
2021/01/07 01:49:06;;;;;;;22.23;14.85;;;;;;;1.58;69.97;100875.69;5011952;28;20030;-88
2021/01/07 01:51:32;;;;;;;23.00;14.25;;;;;;;1.82;69.85;100890.66;5011913;28;20081;-88
2021/01/07 01:53:58;;;;;;;26.27;14.75;;;;;;;1.78;69.77;100876.97;5012066;28;20022;-88
2021/01/07 01:56:23;;;;;;;22.75;13.25;;;;;;;1.70;68.96;100882.31;5011880;28;20025;-89
2021/01/07 01:58:50;;;;;;;19.85;12.98;;;;;;;1.83;69.18;100894.97;5011511;28;20476;-88
2021/01/07 02:01:16;;;;;;;23.52;12.00;;;;;;;1.79;69.57;100878.66;5011589;28;20480;-88
2021/01/07 02:03:42;;;;;;;25.77;14.75;;;;;;;1.88;69.69;100887.94;5010444;28;20387;-88
2021/01/07 02:06:13;;;;;;;17.58;10.95;;;;;;;1.83;69.21;100879.44;5011749;28;20022;-89
2021/01/07 02:08:41;;;;;;;22.43;13.33;;;;;;;1.83;69.91;100880.28;5011839;28;20115;-89
2021/01/07 02:11:08;;;;;;;25.77;15.02;;;;;;;1.80;69.56;100880.34;5011738;28;20018;-89
2021/01/07 02:13:34;;;;;;;23.48;14.77;;;;;;;1.78;69.76;100882.97;5011461;28;20076;-89
2021/01/07 02:15:59;;;;;;;24.73;14.30;;;;;;;1.82;69.71;100886.34;5011822;28;20314;-88
2021/01/07 02:18:25;;;;;;;25.77;15.25;;;;;;;1.84;69.72;100889.75;5010784;28;20469;-88
2021/01/07 02:20:50;;;;;;;28.75;16.00;;;;;;;1.79;68.97;100891.59;5011551;28;20040;-88
2021/01/07 02:23:15;;;;;;;23.27;14.85;;;;;;;1.74;68.75;100885.69;5011652;28;20026;-88
2021/01/07 02:25:41;;;;;;;24.92;15.80;;;;;;;1.62;68.50;100880.78;5011354;28;20519;-88
2021/01/07 02:28:07;;;;;;;27.25;15.85;;;;;;;1.68;69.74;100890.97;5011585;28;20476;-88
2021/01/07 02:30:33;;;;;;;27.05;15.10;;;;;;;1.66;69.95;100888.44;5011655;28;20061;-88
2021/01/07 02:32:58;;;;;;;27.67;16.45;;;;;;;1.57;69.30;100873.97;5011702;28;20373;-88
2021/01/07 02:35:25;;;;;;;27.80;16.00;;;;;;;1.37;68.22;100879.59;5011674;28;20088;-88
2021/01/07 02:37:50;;;;;;;23.70;14.30;;;;;;;1.40;68.36;100899.38;5011711;28;20476;-88
2021/01/07 02:40:16;;;;;;;27.95;15.95;;;;;;;1.37;69.67;100897.72;5011311;28;20026;-88
2021/01/07 02:42:41;;;;;;;28.00;15.68;;;;;;;1.51;70.35;100888.81;5010236;28;20030;-88
2021/01/07 02:45:08;;;;;;;27.38;16.90;;;;;;;1.46;69.64;100891.50;5015181;28;20404;-88
2021/01/07 02:47:34;;;;;;;33.45;17.30;;;;;;;1.39;69.66;100877.84;5031139;28;20026;-88
2021/01/07 02:49:59;;;;;;;28.88;16.65;;;;;;;1.45;69.86;100889.78;5014919;28;20035;-88
2021/01/07 02:52:25;;;;;;;28.30;15.82;;;;;;;1.31;69.57;100877.16;5014942;28;20551;-88
2021/01/07 02:54:50;;;;;;;30.45;15.43;;;;;;;1.34;68.95;100876.22;5013083;28;20476;-88
2021/01/07 02:57:15;;;;;;;27.42;12.85;;;;;;;1.33;68.57;100892.66;5015152;28;20041;-87
2021/01/07 02:59:41;;;;;;;37.67;13.48;;;;;;;1.30;68.75;100880.63;5020743;28;20037;-87
2021/01/07 03:02:06;;;;;;;31.15;15.52;;;;;;;1.09;69.59;100866.44;5016648;28;20030;-87
2021/01/07 03:04:31;;;;;;;28.60;15.30;;;;;;;1.14;69.44;100874.91;5014539;28;20112;-88
2021/01/07 03:06:57;;;;;;;23.27;14.30;;;;;;;1.19;69.86;100872.25;5030125;28;20026;-88
2021/01/07 03:09:22;;;;;;;61.60;15.10;;;;;;;0.95;69.40;100878.81;5015107;28;20025;-88
2021/01/07 03:11:47;;;;;;;26.70;15.63;;;;;;;1.11;70.23;100882.75;5014407;28;20032;-88
2021/01/07 03:14:13;;;;;;;43.10;17.33;;;;;;;0.99;70.16;100875.28;5014495;28;20169;-87
2021/01/07 03:16:38;;;;;;;32.05;13.52;;;;;;;0.98;68.80;100869.22;5014863;28;20089;-87
2021/01/07 03:19:03;;;;;;;36.90;15.15;;;;;;;1.03;70.61;100888.97;5013162;28;20140;-87
2021/01/07 03:21:29;;;;;;;22.52;13.05;;;;;;;0.99;69.46;100880.44;5014139;28;20061;-88
2021/01/07 03:23:54;;;;;;;42.80;16.92;;;;;;;0.99;70.20;100864.94;5014278;28;20025;-88
2021/01/07 03:26:20;;;;;;;55.67;16.55;;;;;;;0.83;69.70;100871.28;5014219;28;20029;-88
2021/01/07 03:28:45;;;;;;;36.58;16.25;;;;;;;0.86;71.22;100873.81;5014019;28;20029;-87
2021/01/07 03:31:10;;;;;;;38.53;15.98;;;;;;;0.93;70.12;100870.22;5012734;28;20125;-87
2021/01/07 03:33:36;;;;;;;24.40;14.77;;;;;;;1.02;69.86;100872.59;5013508;28;20058;-87
2021/01/07 03:36:03;;;;;;;50.67;14.63;;;;;;;0.97;68.69;100880.47;5013931;28;20022;-87
2021/01/07 03:38:28;;;;;;;38.95;14.23;;;;;;;0.99;69.75;100877.84;5013844;28;20036;-87
2021/01/07 03:40:54;;;;;;;27.23;15.48;;;;;;;0.98;69.67;100868.38;5012658;28;20029;-87
2021/01/07 03:43:19;;;;;;;28.67;15.80;;;;;;;0.97;69.94;100877.03;5013448;28;20057;-87
2021/01/07 03:45:44;;;;;;;34.30;15.05;;;;;;;1.09;69.31;100881.09;5013795;28;20472;-87
2021/01/07 03:48:10;;;;;;;36.65;17.52;;;;;;;0.93;69.39;100870.22;5013544;28;20083;-87
2021/01/07 03:50:35;;;;;;;28.65;15.43;;;;;;;0.89;70.77;100878.91;5013550;28;20057;-87
2021/01/07 03:53:02;;;;;;;27.58;16.33;;;;;;;1.07;70.21;100885.47;5013615;28;20052;-88
2021/01/07 03:55:27;;;;;;;51.33;16.15;;;;;;;0.85;68.69;100877.25;5013526;28;20034;-87
2021/01/07 03:57:53;;;;;;;26.17;13.40;;;;;;;0.85;68.81;100882.44;5013057;28;20033;-87
2021/01/07 04:00:19;;;;;;;32.95;14.75;;;;;;;0.78;69.31;100877.38;5013255;28;20026;-87
2021/01/07 04:02:44;;;;;;;25.48;15.25;;;;;;;0.77;69.68;100875.72;5013290;28;20076;-87
2021/01/07 04:05:10;;;;;;;29.48;14.18;;;;;;;0.76;69.13;100865.38;5013384;28;20116;-87
2021/01/07 04:07:36;;;;;;;21.85;12.98;;;;;;;0.60;68.93;100864.84;5013233;28;20029;-87
2021/01/07 04:10:04;;;;;;;76.60;15.73;;;;;;;0.46;70.05;100872.84;5011940;28;20471;-87
2021/01/07 04:12:30;;;;;;;56.88;13.15;;;;;;;0.40;68.93;100867.81;5012943;28;20062;-87
2021/01/07 04:14:55;;;;;;;34.65;13.77;;;;;;;0.22;69.45;100835.41;5012033;28;20064;-87
2021/01/07 04:17:20;;;;;;;27.45;14.80;;;;;;;0.42;68.11;100854.88;5013827;28;20033;-87
2021/01/07 04:19:46;;;;;;;29.55;12.02;;;;;;;0.21;68.31;100874.19;5013452;28;20030;-87
2021/01/07 04:22:11;;;;;;;17.98;11.57;;;;;;;0.24;68.67;100856.91;5013301;28;20026;-86
2021/01/07 04:24:36;;;;;;;16.75;10.32;;;;;;;0.23;69.35;100839.69;5011698;28;20091;-87
2021/01/07 04:27:03;;;;;;;16.42;10.80;;;;;;;0.56;69.63;100881.28;5018347;28;20240;-87
2021/01/07 04:29:29;;;;;;;13.98;9.65;;;;;;;0.54;68.56;100862.38;5032819;28;20025;-87
2021/01/07 04:31:54;;;;;;;16.20;9.93;;;;;;;0.59;68.12;100873.47;5032655;28;20083;-87
2021/01/07 04:34:19;;;;;;;21.48;11.75;;;;;;;0.66;67.98;100881.97;5032560;28;20490;-87
2021/01/07 04:36:45;;;;;;;22.75;11.75;;;;;;;0.39;69.18;100869.56;5030549;28;20132;-87
2021/01/07 04:39:10;;;;;;;32.15;11.95;;;;;;;0.61;69.20;100874.28;5012402;28;20056;-87
2021/01/07 04:41:35;;;;;;;22.08;12.45;;;;;;;0.65;69.44;100875.94;5012694;28;20502;-87
2021/01/07 04:44:01;;;;;;;19.00;11.95;;;;;;;0.78;69.41;100879.13;5012802;28;20040;-86
2021/01/07 04:46:27;;;;;;;18.77;12.68;;;;;;;0.71;68.74;100883.59;5013041;28;20056;-86
2021/01/07 04:48:53;;;;;;;20.77;12.88;;;;;;;0.74;70.39;100885.25;5012470;28;20148;-87
2021/01/07 04:51:19;;;;;;;22.23;13.15;;;;;;;0.84;70.14;100888.50;5012653;28;20026;-87
2021/01/07 04:53:44;;;;;;;20.60;12.10;;;;;;;0.99;69.27;100885.63;5012335;28;20055;-87
2021/01/07 04:56:11;;;;;;;21.90;12.23;;;;;;;0.83;69.47;100886.78;5012462;28;20029;-87
2021/01/07 04:58:36;;;;;;;28.85;13.20;;;;;;;0.74;70.15;100880.91;5012343;28;20431;-87
2021/01/07 05:01:02;;;;;;;26.23;12.85;;;;;;;0.92;68.81;100868.50;5012365;28;20034;-87
2021/01/07 05:03:31;;;;;;;30.73;13.15;;;;;;;0.94;69.51;100869.34;5011194;28;20030;-87
2021/01/07 05:05:57;;;;;;;20.52;11.68;;;;;;;1.01;70.15;100881.25;5011177;28;20124;-86
2021/01/07 05:08:22;;;;;;;21.45;12.40;;;;;;;1.07;68.80;100865.59;5011447;28;20065;-86
2021/01/07 05:10:50;;;;;;;44.70;15.73;;;;;;;0.97;69.05;100870.13;5012423;28;20514;-86
2021/01/07 05:13:22;;;;;;;43.50;13.35;;;;;;;0.83;70.50;100860.94;5012244;28;20032;-86
2021/01/07 05:15:48;;;;;;;23.70;13.93;;;;;;;0.92;71.32;100868.50;5012233;28;20022;-86
2021/01/07 05:18:13;;;;;;;25.30;14.93;;;;;;;1.06;70.85;100875.97;5012831;28;20542;-86
2021/01/07 05:20:39;;;;;;;52.65;15.15;;;;;;;0.87;70.88;100868.63;5012299;28;20053;-86
2021/01/07 05:23:07;;;;;;;118.10;16.27;;;;;;;0.74;72.04;100874.91;5012088;28;20527;-86
2021/01/07 05:25:32;;;;;;;89.78;15.48;;;;;;;0.92;70.91;100876.28;5012136;28;20531;-87
2021/01/07 05:27:59;;;;;;;32.05;14.35;;;;;;;1.08;71.40;100864.72;5012151;28;20100;-86
2021/01/07 05:30:27;;;;;;;35.72;14.32;;;;;;;1.11;70.71;100867.25;5012047;28;20029;-86
2021/01/07 05:33:01;;;;;;;251.55;20.15;;;;;;;0.75;70.52;100851.63;5011714;28;20036;-86
2021/01/07 05:35:27;;;;;;;29.55;12.95;;;;;;;0.96;70.65;100868.41;5011933;28;20069;-86
2021/01/07 05:37:52;;;;;;;39.08;15.55;;;;;;;0.89;72.08;100865.97;5011698;28;20053;-86
2021/01/07 05:40:18;;;;;;;26.80;13.38;;;;;;;1.10;70.38;100870.69;5012138;28;20048;-86
2021/01/07 05:42:45;;;;;;;36.30;13.07;;;;;;;1.03;70.68;100856.22;5012149;28;20037;-86
2021/01/07 05:45:17;;;;;;;24.25;11.40;;;;;;;1.07;70.35;100862.19;5012007;28;20034;-85
2021/01/07 05:47:49;;;;;;;33.10;12.90;;;;;;;1.16;69.79;100867.13;5011782;28;20061;-86
2021/01/07 05:50:14;;;;;;;33.95;13.93;;;;;;;1.11;69.91;100859.50;5011915;28;20057;-86
2021/01/07 05:52:42;;;;;;;23.75;12.82;;;;;;;0.88;69.68;100867.72;5011964;28;20081;-87
2021/01/07 05:55:09;;;;;;;18.63;11.60;;;;;;;1.03;69.87;100848.47;5012026;28;20101;-86
2021/01/07 05:57:37;;;;;;;23.20;12.35;;;;;;;1.21;69.16;100854.13;5010466;28;20365;-86
2021/01/07 06:00:22;;;;;;;19.02;10.95;;;;;;;1.08;68.66;100856.94;5010567;28;20022;-86
2021/01/07 06:02:51;;;;;;;21.30;13.02;;;;;;;1.22;70.31;100855.81;5011706;28;20032;-86
2021/01/07 06:05:17;;;;;;;21.60;13.05;;;;;;;1.25;69.83;100859.19;5011743;28;20033;-86
2021/01/07 06:07:43;;;;;;;21.63;13.45;;;;;;;1.22;69.68;100855.81;5011666;28;20036;-87
2021/01/07 06:10:10;;;;;;;27.05;12.63;;;;;;;1.09;69.32;100843.16;5011595;28;20025;-86
2021/01/07 06:12:36;;;;;;;25.75;14.45;;;;;;;1.13;70.22;100862.03;5011492;28;20377;-86
2021/01/07 06:15:25;;;;;;;43.05;15.63;;;;;;;1.15;70.23;100858.53;5011601;28;20026;-86
2021/01/07 06:17:51;;;;;;;50.00;15.63;;;;;;;1.14;70.83;100841.28;5009028;28;20130;-86
2021/01/07 06:20:19;;;;;;;32.22;13.70;;;;;;;1.42;70.86;100858.78;5014747;28;20037;-86
2021/01/07 06:22:47;;;;;;;31.58;16.00;;;;;;;1.34;72.22;100868.47;5015676;28;20022;-86
2021/01/07 06:25:13;;;;;;;36.00;13.02;;;;;;;1.50;71.11;100853.44;4995636;28;20027;-86
2021/01/07 06:27:43;;;;;;;23.10;13.45;;;;;;;1.55;71.70;100855.03;4995507;28;20057;-86
2021/01/07 06:30:08;;;;;;;26.98;13.40;;;;;;;1.51;71.67;100868.09;4995596;28;20035;-86
2021/01/07 06:32:34;;;;;;;60.42;15.15;;;;;;;1.37;71.15;100845.13;4995627;28;20033;-86
2021/01/07 06:35:00;;;;;;;36.05;13.52;;;;;;;1.22;71.87;100854.06;4995381;28;20469;-86
2021/01/07 06:37:50;;;;;;;32.35;14.48;;;;;;;1.61;71.56;100872.16;4994158;28;20117;-86
2021/01/07 06:40:17;;;;;;;35.75;13.50;;;;;;;1.57;70.88;100863.63;4990144;28;20038;-86
2021/01/07 06:42:45;;;;;;;42.50;13.70;;;;;;;1.73;71.08;100871.88;4995376;28;20488;-86
2021/01/07 06:45:12;;;;;;;52.60;13.80;;;;;;;1.82;69.79;100870.81;4995899;28;20023;-86
2021/01/07 06:47:39;;;;;;;20.35;12.10;;;;;;;1.79;70.01;100865.69;4995187;28;20497;-86
2021/01/07 06:50:05;;;;;;;31.83;13.55;;;;;;;1.65;71.61;100871.22;4995180;28;20110;-86
2021/01/07 06:52:44;;;;;;;49.30;15.30;;;;;;;1.63;71.27;100872.97;4997332;28;20034;-86
2021/01/07 06:55:14;;;;;;;26.60;14.10;;;;;;;1.82;71.28;100877.72;5014786;28;20033;-86
2021/01/07 06:57:54;;;;;;;23.90;13.85;;;;;;;1.81;69.96;100871.69;5014768;28;20026;-86
2021/01/07 07:00:21;;;;;;;26.25;14.18;;;;;;;1.96;71.15;100886.00;5013160;28;20040;-86
2021/01/07 07:03:00;;;;;;;36.40;13.85;;;;;;;1.92;69.57;100880.06;5014701;28;20567;-86
2021/01/07 07:05:33;;;;;;;24.42;13.35;;;;;;;1.82;69.15;100865.63;5014753;28;20029;-86
2021/01/07 07:08:04;;;;;;;25.00;14.07;;;;;;;1.97;70.59;100878.22;5014424;28;20038;-86
2021/01/07 07:10:32;;;;;;;23.80;13.60;;;;;;;2.02;70.49;100872.06;5014571;28;20032;-86
2021/01/07 07:12:58;;;;;;;91.28;15.50;;;;;;;1.89;69.44;100864.56;5014467;28;20121;-86
2021/01/07 07:15:25;;;;;;;48.40;16.63;;;;;;;1.93;70.38;100873.13;5014257;28;20400;-86
2021/01/07 07:17:55;;;;;;;35.47;14.77;;;;;;;1.86;70.66;100854.31;5014530;28;20038;-86
2021/01/07 07:20:25;;;;;;;25.85;13.38;;;;;;;2.01;69.37;100878.97;5014567;28;20357;-86
2021/01/07 07:22:53;;;;;;;139.52;16.48;;;;;;;1.88;69.32;100869.81;5014196;28;20030;-86
2021/01/07 07:25:24;;;;;;;32.92;14.65;;;;;;;1.65;70.06;100880.72;5014149;28;20225;-86
2021/01/07 07:27:52;;;;;;;34.15;15.07;;;;;;;1.50;70.53;100856.03;5014075;28;20041;-86
2021/01/07 07:30:23;;;;;;;25.20;13.75;;;;;;;1.87;70.76;100881.06;5014198;28;20107;-86
2021/01/07 07:32:49;;;;;;;21.15;13.30;;;;;;;1.91;70.36;100887.84;5012543;28;20033;-86
2021/01/07 07:35:22;;;;;;;31.67;14.38;;;;;;;1.90;70.18;100888.75;5014022;28;20032;-86
2021/01/07 07:37:48;;;;;;;25.92;13.93;;;;;;;1.82;70.96;100863.03;5017384;28;20036;-87
2021/01/07 07:40:39;;;;;;;27.13;14.40;;;;;;;2.04;70.10;100885.81;5033573;28;20025;-87
2021/01/07 07:43:07;;;;;;;26.92;13.32;;;;;;;1.85;70.50;100877.66;5033972;28;20026;-87
2021/01/07 07:45:34;;;;;;;26.40;13.02;;;;;;;2.05;69.71;100890.94;5033913;28;20112;-86
2021/01/07 07:48:00;;;;;;;28.33;14.70;;;;;;;1.96;70.38;100891.19;5025360;28;20087;-85
2021/01/07 07:50:29;;;;;;;21.80;13.88;;;;;;;1.97;69.63;100893.75;5013640;28;20451;-86
2021/01/07 07:53:12;;;;;;;22.75;14.68;;;;;;;2.06;69.81;100905.63;5013990;28;20036;-86
2021/01/07 07:55:39;;;;;;;24.33;13.48;;;;;;;2.13;69.76;100903.72;5013644;28;20033;-86
2021/01/07 07:58:15;;;;;;;22.10;13.35;;;;;;;2.11;70.08;100905.50;5013442;28;20402;-86
2021/01/07 08:00:55;;;;;;;31.13;15.30;;;;;;;2.02;69.35;100898.81;5000389;28;21189;-86
2021/01/07 08:03:31;;;;;;;25.67;15.30;;;;;;;2.10;70.72;100896.03;5012403;28;20025;-86
2021/01/07 08:05:58;;;;;;;34.42;15.73;;;;;;;1.74;68.49;100901.22;5013488;28;20468;-87
2021/01/07 08:08:26;;;;;;;41.60;15.95;;;;;;;1.54;70.15;100910.28;5014485;28;20026;-86
2021/01/07 08:10:53;;;;;;;26.58;14.43;;;;;;;1.62;69.67;100902.34;5019021;28;20033;-89
2021/01/07 08:13:20;;;;;;;22.08;12.52;;;;;;;1.69;69.64;100887.53;5014008;28;20068;-90
2021/01/07 08:15:47;;;;;;;54.03;16.13;;;;;;;1.62;68.57;100897.19;5013915;28;20018;-90
2021/01/07 08:18:18;;;;;;;33.00;14.70;;;;;;;1.60;69.37;100886.00;5014200;28;20049;-89
2021/01/07 08:20:43;;;;;;;42.78;15.57;;;;;;;1.61;69.18;100897.22;5013375;28;20033;-89
2021/01/07 08:23:10;;;;;;;41.58;16.58;;;;;;;1.68;71.54;100922.91;5013481;28;20030;-89
2021/01/07 08:25:36;;;;;;;28.15;15.05;;;;;;;1.75;71.09;100928.78;5011855;28;20030;-90
2021/01/07 08:28:10;;;;;;;28.58;13.95;;;;;;;1.59;70.15;100912.75;5011741;28;20129;-89
2021/01/07 08:30:48;;;;;;;25.63;14.20;;;;;;;1.71;70.05;100922.00;5010171;28;20061;-89
2021/01/07 08:33:18;;;;;;;21.48;13.32;;;;;;;1.80;69.89;100921.78;5011930;28;20099;-90
2021/01/07 08:35:47;;;;;;;27.23;14.45;;;;;;;1.70;69.25;100922.88;5026954;28;20029;-90
2021/01/07 08:38:24;;;;;;;40.70;16.17;;;;;;;1.33;69.73;100931.47;5010798;28;20028;-89
2021/01/07 08:40:50;;;;;;;25.65;15.15;;;;;;;1.56;70.21;100931.81;5007794;28;20374;-90
2021/01/07 08:43:16;;;;;;;29.17;17.25;;;;;;;1.47;70.59;100913.91;5008143;28;20476;-90
2021/01/07 08:45:41;;;;;;;38.53;15.18;;;;;;;1.51;68.43;100915.53;5012679;28;20108;-90
2021/01/07 08:48:07;;;;;;;32.65;15.35;;;;;;;1.59;70.06;100923.97;5012882;28;20030;-90
2021/01/07 08:50:33;;;;;;;25.38;13.45;;;;;;;1.72;69.96;100926.28;5011837;28;20022;-91
2021/01/07 08:52:59;;;;;;;64.32;15.80;;;;;;;1.31;69.19;100913.38;5008744;28;20484;-89
2021/01/07 08:55:48;;;;;;;32.05;16.92;;;;;;;1.65;70.96;100917.81;5002700;28;20034;-90
2021/01/07 08:58:26;;;;;;;23.13;13.00;;;;;;;1.72;69.90;100903.00;5015572;28;20022;-90
2021/01/07 09:00:53;;;;;;;77.03;16.25;;;;;;;1.55;68.37;100916.31;5019383;28;20125;-91
2021/01/07 09:03:19;;;;;;;23.85;14.05;;;;;;;1.54;69.81;100920.66;5037925;28;20365;-90
2021/01/07 09:05:46;;;;;;;26.00;14.07;;;;;;;1.69;70.53;100910.81;5024751;28;20032;-89
2021/01/07 09:08:13;;;;;;;29.23;13.88;;;;;;;1.62;69.07;100917.00;5012937;28;20049;-89
2021/01/07 09:10:38;;;;;;;30.35;15.68;;;;;;;1.62;69.42;100927.38;5013341;28;20028;-91
2021/01/07 09:13:18;;;;;;;24.02;13.73;;;;;;;1.48;69.65;100910.44;5014950;28;20034;-90
2021/01/07 09:15:44;;;;;;;46.97;16.13;;;;;;;1.52;69.77;100922.41;5012442;28;20030;-90
2021/01/07 09:18:09;;;;;;;20.05;12.48;;;;;;;1.55;69.00;100916.31;5016517;28;20060;-89
2021/01/07 09:20:35;;;;;;;58.00;12.93;;;;;;;1.52;68.66;100912.06;5009064;28;20506;-91
2021/01/07 09:23:01;;;;;;;26.95;12.13;;;;;;;1.48;68.75;100917.31;5010669;28;20034;-90
2021/01/07 09:25:27;;;;;;;62.75;13.82;;;;;;;1.62;68.72;100909.25;5010195;28;20037;-89
2021/01/07 09:27:55;;;;;;;44.72;14.00;;;;;;;1.70;67.73;100912.50;5011244;28;20393;-89
2021/01/07 09:30:21;;;;;;;33.30;13.40;;;;;;;1.56;69.00;100903.34;5025981;28;20024;-89
2021/01/07 09:32:46;;;;;;;35.35;12.90;;;;;;;1.67;67.54;100912.59;5033588;28;20034;-90
2021/01/07 09:35:12;;;;;;;32.30;11.02;;;;;;;1.65;67.16;100919.53;5029347;28;20029;-91
2021/01/07 09:37:38;;;;;;;31.42;12.45;;;;;;;1.85;68.76;100919.91;5011982;28;20022;-89
2021/01/07 09:40:05;;;;;;;38.47;11.70;;;;;;;1.74;66.83;100914.16;5012177;28;20033;-89
2021/01/07 09:42:32;;;;;;;63.58;12.32;;;;;;;1.75;66.86;100923.63;5017819;28;20076;-90
2021/01/07 09:44:59;;;;;;;16.95;10.93;;;;;;;1.81;68.03;100920.88;5032495;28;20057;-89
2021/01/07 09:47:24;;;;;;;43.03;12.60;;;;;;;1.84;66.63;100910.47;5026943;28;20030;-90
2021/01/07 09:49:50;;;;;;;18.90;12.02;;;;;;;2.07;67.52;100914.22;5027795;28;20034;-90
2021/01/07 09:52:16;;;;;;;62.25;13.80;;;;;;;1.76;67.51;100915.81;5022390;28;20061;-91
2021/01/07 09:54:41;;;;;;;84.68;15.18;;;;;;;1.80;68.75;100903.66;5020941;28;20030;-91
2021/01/07 09:57:07;;;;;;;27.48;12.23;;;;;;;1.73;68.37;100900.34;5013219;28;20053;-91
2021/01/07 09:59:33;;;;;;;37.30;12.95;;;;;;;1.57;69.25;100892.09;5005000;28;20109;-90
2021/01/07 10:02:06;;;;;;;43.50;12.82;;;;;;;1.81;68.87;100918.28;5017355;28;20030;-90
2021/01/07 10:04:32;;;;;;;22.25;13.07;;;;;;;2.17;68.10;100910.50;5025116;28;20121;-91
2021/01/07 10:06:58;;;;;;;81.38;12.88;;;;;;;2.07;67.36;100901.28;5016798;28;20444;-91
2021/01/07 10:09:24;;;;;;;64.38;13.27;;;;;;;2.20;66.15;100899.25;5019327;28;20026;-90
2021/01/07 10:11:55;;;;;;;60.75;12.77;;;;;;;2.12;67.14;100907.22;5012607;28;20039;-90
2021/01/07 10:14:21;;;;;;;25.17;12.82;;;;;;;2.26;67.95;100918.06;5014168;28;20514;-89
2021/01/07 10:16:51;;;;;;;100.38;14.02;;;;;;;2.03;66.24;100905.69;5019234;28;20488;-89
2021/01/07 10:19:17;;;;;;;73.28;12.32;;;;;;;1.96;65.87;100905.00;5015616;28;20040;-90
2021/01/07 10:21:47;;;;;;;31.85;12.32;;;;;;;2.24;66.79;100911.22;5023860;28;20094;-90
2021/01/07 10:24:14;;;;;;;18.10;10.73;;;;;;;2.56;66.49;100907.78;5023774;28;20050;-90
2021/01/07 10:26:40;;;;;;;34.65;11.40;;;;;;;2.34;64.74;100900.56;5021996;28;20026;-91
2021/01/07 10:29:05;;;;;;;51.40;12.15;;;;;;;2.27;66.75;100895.59;5016176;28;20539;-91
2021/01/07 10:31:31;;;;;;;20.48;12.90;;;;;;;2.45;66.53;100904.63;5020895;28;20043;-90
2021/01/07 10:33:57;;;;;;;97.63;14.80;;;;;;;2.58;65.22;100912.03;5020193;28;20052;-90
2021/01/07 10:36:22;;;;;;;21.95;12.32;;;;;;;2.64;65.00;100890.28;5023021;28;20022;-90
2021/01/07 10:38:48;;;;;;;20.23;11.82;;;;;;;2.90;65.92;100907.75;5034626;28;20026;-89
2021/01/07 10:41:15;;;;;;;41.38;13.73;;;;;;;2.80;65.10;100897.66;5033158;28;20052;-89
2021/01/07 10:43:41;;;;;;;50.10;11.60;;;;;;;2.97;64.66;100909.25;5027361;28;20029;-90
2021/01/07 10:46:07;;;;;;;36.83;11.50;;;;;;;2.98;63.66;100904.91;5039611;28;20427;-91
2021/01/07 10:48:42;;;;;;;22.55;12.18;;;;;;;3.17;64.28;100903.47;5016106;28;20022;-90
2021/01/07 10:51:09;;;;;;;34.05;11.82;;;;;;;3.66;64.23;100911.53;5016007;28;20026;-88
2021/01/07 10:53:52;;;;;;;60.20;13.50;;;;;;;3.50;63.64;100910.31;5014733;28;20431;-89
2021/01/07 10:56:25;;;;;;;24.10;12.38;;;;;;;3.65;64.08;100896.00;5016237;28;20566;-91
2021/01/07 10:59:12;;;;;;;22.58;12.43;;;;;;;3.86;63.25;100905.72;5026316;28;20128;-92
2021/01/07 11:01:52;;;;;;;20.70;11.65;;;;;;;3.49;63.50;100895.63;5012701;28;20140;-91
2021/01/07 11:04:55;;;;;;;15.05;10.65;;;;;;;4.03;61.55;100901.72;5022995;28;20112;-92
2021/01/07 11:07:33;;;;;;;26.80;10.25;;;;;;;3.90;62.72;100903.88;5011052;28;20022;-93
2021/01/07 11:10:04;;;;;;;86.53;12.63;;;;;;;3.90;63.25;100901.28;5014513;28;20038;-91
2021/01/07 11:12:40;;;;;;;52.33;14.60;;;;;;;3.91;63.98;100895.16;5031077;28;20047;-89
2021/01/07 11:15:11;;;;;;;26.45;11.90;;;;;;;3.87;64.33;100896.16;5020981;28;20025;-91
2021/01/07 11:17:47;;;;;;;23.77;14.30;;;;;;;3.97;64.45;100898.44;5021309;28;20194;-93
2021/01/07 11:20:14;;;;;;;63.17;13.57;;;;;;;3.91;62.96;100898.63;5031338;28;20033;-93